Time;durP1;ratioP1;P1;durP2;ratioP2;P2;SDS_P1;SDS_P2;PMS_P1;PMS_P2;Temp;Humidity;BMP_temperature;BMP_pressure;BME280_temperature;BME280_humidity;BME280_pressure;Samples;Min_cycle;Max_cycle;Signal;HPM_P1;HPM_P2
2023/01/19 04:01:17;;;;;;;2.15;1.50;;;12.60;51.20;;;;;;5533351;23;46155;-64
2023/01/19 04:03:42;;;;;;;2.05;1.40;;;12.60;51.10;;;;;;4929185;28;45549;-63
2023/01/19 04:06:08;;;;;;;2.72;1.67;;;12.60;51.10;;;;;;4950031;28;44931;-64
2023/01/19 04:08:34;;;;;;;2.38;1.50;;;12.60;51.10;;;;;;4920573;28;45482;-64
2023/01/19 04:11:00;;;;;;;2.05;1.20;;;12.50;51.10;;;;;;4901335;28;45251;-64
2023/01/19 04:13:27;;;;;;;1.95;1.58;;;12.50;51.20;;;;;;4941131;28;45143;-64
2023/01/19 04:15:53;;;;;;;2.17;1.45;;;12.50;51.10;;;;;;4927281;28;46051;-64
2023/01/19 04:18:18;;;;;;;1.63;1.08;;;12.60;51.20;;;;;;4929632;28;45645;-63
2023/01/19 04:20:44;;;;;;;2.03;1.40;;;12.50;51.20;;;;;;4962537;28;44651;-63
2023/01/19 04:23:09;;;;;;;2.17;1.40;;;12.50;51.10;;;;;;4940957;28;45169;-64
2023/01/19 04:25:35;;;;;;;2.55;1.70;;;12.50;51.10;;;;;;4936261;28;46894;-63
2023/01/19 04:28:01;;;;;;;1.80;1.20;;;12.50;51.10;;;;;;4930341;28;45558;-64
2023/01/19 04:30:26;;;;;;;1.83;1.33;;;12.50;51.10;;;;;;4943810;28;45352;-64
2023/01/19 04:32:54;;;;;;;1.67;1.30;;;12.50;51.10;;;;;;4953200;28;45584;-64
2023/01/19 04:35:21;;;;;;;2.80;1.38;;;12.50;51.10;;;;;;4943900;28;46023;-64
2023/01/19 04:37:47;;;;;;;2.72;1.52;;;12.50;51.20;;;;;;4934074;28;44829;-63
2023/01/19 04:40:12;;;;;;;1.85;1.40;;;12.50;51.10;;;;;;4946372;28;45249;-64
2023/01/19 04:42:41;;;;;;;1.63;1.30;;;12.50;51.20;;;;;;4946321;28;45332;-63
2023/01/19 04:45:07;;;;;;;2.40;1.65;;;12.50;51.80;;;;;;4961803;28;46379;-63
2023/01/19 04:47:33;;;;;;;2.53;1.73;;;12.50;51.20;;;;;;4932282;28;45441;-64
2023/01/19 04:49:58;;;;;;;1.75;1.40;;;12.50;51.20;;;;;;4964135;28;45230;-63
2023/01/19 04:52:24;;;;;;;2.80;1.50;;;12.50;51.20;;;;;;4962759;28;45517;-64
2023/01/19 04:54:49;;;;;;;1.95;1.52;;;12.50;51.20;;;;;;4944756;28;45346;-64
2023/01/19 04:57:15;;;;;;;2.97;1.88;;;12.50;51.20;;;;;;4962744;28;45532;-64
2023/01/19 04:59:41;;;;;;;2.45;1.33;;;12.40;51.20;;;;;;4953089;28;45382;-64
2023/01/19 05:02:06;;;;;;;1.83;1.33;;;12.40;51.20;;;;;;4944107;28;45663;-64
2023/01/19 05:04:32;;;;;;;2.42;1.50;;;12.40;51.20;;;;;;4945745;28;45545;-63
2023/01/19 05:06:58;;;;;;;2.38;1.58;;;12.40;51.10;;;;;;4950661;28;45459;-64
2023/01/19 05:09:24;;;;;;;2.15;1.52;;;12.40;51.10;;;;;;4961403;28;45076;-64
2023/01/19 05:11:50;;;;;;;3.47;1.52;;;12.40;51.20;;;;;;4960485;28;45218;-63
2023/01/19 05:14:15;;;;;;;1.55;1.30;;;12.40;51.10;;;;;;4948948;28;45236;-64
2023/01/19 05:16:41;;;;;;;2.05;1.50;;;12.40;51.20;;;;;;4965803;28;45066;-63
2023/01/19 05:19:06;;;;;;;2.10;1.30;;;12.40;51.10;;;;;;4964967;28;45523;-63
2023/01/19 05:21:32;;;;;;;2.25;1.30;;;12.40;51.10;;;;;;4930146;28;46790;-64
2023/01/19 05:23:58;;;;;;;2.05;1.40;;;12.40;51.10;;;;;;4959549;28;45235;-63
2023/01/19 05:26:24;;;;;;;2.85;1.50;;;12.40;51.20;;;;;;4945226;28;45601;-64
2023/01/19 05:28:49;;;;;;;1.55;1.27;;;12.40;51.20;;;;;;4933367;28;45159;-63
2023/01/19 05:31:15;;;;;;;1.95;1.40;;;12.40;51.20;;;;;;4964002;28;45018;-64
2023/01/19 05:33:41;;;;;;;2.58;1.60;;;12.40;51.20;;;;;;4966310;28;46139;-64
2023/01/19 05:36:07;;;;;;;2.05;1.40;;;12.40;51.10;;;;;;4947382;28;45511;-63
2023/01/19 05:38:32;;;;;;;1.83;1.50;;;12.40;51.20;;;;;;4949383;28;45475;-63
2023/01/19 05:40:58;;;;;;;2.08;1.42;;;12.40;51.20;;;;;;4939717;28;45312;-64
2023/01/19 05:43:26;;;;;;;2.72;1.60;;;12.40;51.20;;;;;;4947334;28;45526;-63
2023/01/19 05:45:51;;;;;;;2.83;1.73;;;12.40;51.80;;;;;;4935153;28;45480;-64
2023/01/19 05:48:17;;;;;;;2.42;1.60;;;12.40;51.20;;;;;;4963707;28;45337;-64
2023/01/19 05:50:42;;;;;;;2.03;1.63;;;12.40;51.30;;;;;;4934807;28;44887;-64
2023/01/19 05:53:08;;;;;;;1.45;1.10;;;12.30;51.20;;;;;;4967220;28;45233;-64
2023/01/19 05:55:33;;;;;;;2.47;1.40;;;12.30;51.20;;;;;;4930501;28;45534;-64
2023/01/19 05:58:00;;;;;;;2.22;1.52;;;12.30;51.20;;;;;;4946712;28;45115;-64
2023/01/19 06:00:26;;;;;;;2.58;1.50;;;12.30;51.10;;;;;;4961517;28;45267;-64
2023/01/19 06:02:52;;;;;;;1.83;1.48;;;12.30;51.20;;;;;;4964736;28;46969;-64
2023/01/19 06:05:18;;;;;;;2.35;1.30;;;12.30;51.10;;;;;;4945738;28;45446;-64
2023/01/19 06:07:43;;;;;;;3.72;1.38;;;12.30;51.10;;;;;;4937834;28;44969;-64
2023/01/19 06:10:09;;;;;;;1.90;1.42;;;12.30;51.10;;;;;;4948075;28;45610;-64
2023/01/19 06:12:36;;;;;;;2.08;1.35;;;12.30;51.10;;;;;;4936739;28;45023;-64
2023/01/19 06:15:01;;;;;;;1.67;1.25;;;12.30;51.10;;;;;;4935534;28;45451;-63
2023/01/19 06:17:27;;;;;;;1.50;1.17;;;12.30;51.20;;;;;;4971772;28;45284;-63
2023/01/19 06:19:52;;;;;;;2.05;1.48;;;12.30;51.20;;;;;;4946648;28;45382;-64
2023/01/19 06:22:18;;;;;;;2.85;1.75;;;12.30;51.20;;;;;;4944725;28;46095;-64
2023/01/19 06:24:43;;;;;;;2.35;1.25;;;12.30;51.20;;;;;;4960058;28;45494;-63
2023/01/19 06:27:10;;;;;;;1.45;1.35;;;12.30;51.30;;;;;;4962909;28;45568;-63
2023/01/19 06:29:35;;;;;;;2.50;1.58;;;12.30;51.20;;;;;;4959405;28;45605;-64
2023/01/19 06:32:01;;;;;;;2.42;1.60;;;12.30;51.20;;;;;;4945410;28;46083;-64
2023/01/19 06:34:27;;;;;;;2.53;1.50;;;12.30;51.30;;;;;;4964332;28;45158;-63
2023/01/19 06:36:56;;;;;;;2.20;1.27;;;12.30;51.20;;;;;;4963394;28;46296;-63
2023/01/19 06:39:22;;;;;;;3.95;1.55;;;12.30;51.30;;;;;;4945444;28;45021;-63
2023/01/19 06:41:47;;;;;;;1.65;1.40;;;12.20;51.20;;;;;;4962574;28;46064;-63
2023/01/19 06:44:13;;;;;;;2.15;1.40;;;12.20;51.20;;;;;;4933904;28;45180;-63
2023/01/19 06:46:39;;;;;;;2.50;1.60;;;12.20;51.20;;;;;;4946534;28;45756;-63
2023/01/19 06:49:04;;;;;;;2.63;1.20;;;12.20;51.20;;;;;;4950466;28;45853;-64
2023/01/19 06:51:30;;;;;;;2.30;1.45;;;12.20;51.20;;;;;;4949339;28;47481;-62
2023/01/19 06:53:55;;;;;;;2.45;1.45;;;12.20;51.20;;;;;;4965858;28;45200;-63
2023/01/19 06:56:21;;;;;;;2.45;1.45;;;12.20;51.30;;;;;;4944809;28;45777;-63
2023/01/19 06:58:47;;;;;;;1.27;1.02;;;12.30;51.30;;;;;;4969798;28;45457;-63
2023/01/19 07:01:12;;;;;;;1.70;1.30;;;12.40;51.20;;;;;;4928303;28;45951;-64
2023/01/19 07:03:38;;;;;;;1.85;1.38;;;12.60;51.10;;;;;;4943671;28;45144;-61
2023/01/19 07:06:05;;;;;;;3.58;1.42;;;12.70;50.80;;;;;;4960649;28;45292;-62
2023/01/19 07:08:31;;;;;;;3.38;1.55;;;12.90;50.60;;;;;;4956427;28;44942;-62
2023/01/19 07:11:07;;;;;;;1.92;1.33;;;13.10;50.40;;;;;;4946494;28;45970;-62
2023/01/19 07:13:34;;;;;;;1.55;1.17;;;13.30;50.10;;;;;;4940344;28;44942;-63
2023/01/19 07:16:06;;;;;;;1.58;1.10;;;13.40;49.90;;;;;;4943588;28;44675;-61
2023/01/19 07:18:31;;;;;;;1.43;1.07;;;13.50;49.70;;;;;;4950189;28;45453;-62
2023/01/19 07:20:57;;;;;;;1.50;1.20;;;13.70;49.60;;;;;;4939479;28;45550;-63
2023/01/19 07:23:23;;;;;;;1.52;0.95;;;13.90;49.50;;;;;;4940582;28;45436;-63
2023/01/19 07:25:48;;;;;;;1.70;1.30;;;14.00;49.30;;;;;;4965718;28;45523;-62
2023/01/19 07:28:15;;;;;;;2.60;1.30;;;14.10;49.20;;;;;;4947489;28;45960;-63
2023/01/19 07:30:45;;;;;;;1.90;1.38;;;14.10;49.10;;;;;;4948848;28;45807;-63
2023/01/19 07:33:11;;;;;;;2.10;1.48;;;14.10;49.10;;;;;;4955214;28;45877;-62
2023/01/19 07:35:36;;;;;;;2.40;1.40;;;14.20;49.20;;;;;;4966285;28;45270;-63
2023/01/19 07:38:02;;;;;;;1.38;1.13;;;14.30;49.10;;;;;;4938794;28;45813;-64
2023/01/19 07:40:27;;;;;;;2.05;1.42;;;14.40;49.00;;;;;;4965373;28;46165;-62
2023/01/19 07:42:53;;;;;;;1.50;1.10;;;14.60;48.80;;;;;;4946529;28;45376;-61
2023/01/19 07:45:19;;;;;;;2.53;1.45;;;14.70;48.70;;;;;;4972625;28;45169;-61
2023/01/19 07:47:47;;;;;;;1.65;0.95;;;14.80;48.50;;;;;;4951039;28;45639;-62
2023/01/19 07:50:13;;;;;;;1.52;1.10;;;15.00;48.30;;;;;;4937523;28;46095;-63
2023/01/19 07:52:39;;;;;;;1.10;1.00;;;15.10;48.20;;;;;;4947421;28;45520;-62
2023/01/19 07:55:05;;;;;;;1.77;1.10;;;15.30;48.10;;;;;;4971124;28;45242;-62
2023/01/19 07:57:30;;;;;;;1.63;1.20;;;15.40;48.00;;;;;;4964747;28;45235;-62
2023/01/19 07:59:56;;;;;;;1.67;1.38;;;15.50;47.80;;;;;;4961343;28;45626;-62
2023/01/19 08:02:22;;;;;;;2.08;1.38;;;15.60;47.70;;;;;;4948009;28;45196;-63
2023/01/19 08:04:48;;;;;;;2.08;1.20;;;15.70;47.60;;;;;;4966291;28;44994;-62
2023/01/19 08:07:13;;;;;;;2.00;1.38;;;15.80;47.60;;;;;;4951848;28;45609;-63
2023/01/19 08:09:39;;;;;;;1.63;1.10;;;15.90;47.50;;;;;;4951613;28;45503;-62
2023/01/19 08:12:04;;;;;;;2.00;1.30;;;15.90;47.50;;;;;;4965709;28;45563;-63
2023/01/19 08:14:30;;;;;;;1.60;1.13;;;15.90;47.50;;;;;;4955334;28;45345;-63
2023/01/19 08:17:02;;;;;;;1.23;1.00;;;15.90;47.50;;;;;;4952712;28;45589;-63
2023/01/19 08:19:27;;;;;;;2.30;1.40;;;16.00;47.50;;;;;;4945162;28;45540;-63
2023/01/19 08:21:53;;;;;;;1.48;1.10;;;16.10;47.50;;;;;;4953243;28;45856;-63
2023/01/19 08:24:27;;;;;;;1.15;0.93;;;16.20;47.30;;;;;;4963316;28;45121;-61
2023/01/19 08:27:00;;;;;;;2.55;1.20;;;16.30;47.10;;;;;;4965697;28;44647;-60
2023/01/19 08:29:26;;;;;;;2.20;1.30;;;16.50;47.00;;;;;;4963597;28;46258;-61
2023/01/19 08:31:54;;;;;;;1.42;1.08;;;16.60;46.90;;;;;;4949958;28;45233;-62
2023/01/19 08:34:20;;;;;;;4.15;1.20;;;16.70;46.70;;;;;;4961994;28;45580;-62
2023/01/19 08:36:46;;;;;;;1.15;1.00;;;16.80;46.50;;;;;;4942923;28;45054;-63
2023/01/19 08:39:12;;;;;;;2.17;1.33;;;16.90;46.40;;;;;;4951607;28;45476;-63
2023/01/19 08:41:37;;;;;;;1.08;0.95;;;17.00;46.30;;;;;;4929787;28;45622;-64
2023/01/19 08:44:03;;;;;;;1.20;1.05;;;17.10;46.30;;;;;;4943258;28;45253;-64
2023/01/19 08:46:28;;;;;;;1.83;1.20;;;17.20;46.10;;;;;;4965059;28;45285;-62
2023/01/19 08:48:54;;;;;;;1.50;0.70;;;17.30;46.00;;;;;;4969433;28;45955;-63
2023/01/19 08:51:19;;;;;;;1.08;0.85;;;17.30;46.00;;;;;;4959934;28;45459;-62
2023/01/19 08:53:45;;;;;;;1.27;1.05;;;17.40;45.90;;;;;;4964685;28;45344;-64
2023/01/19 08:56:12;;;;;;;1.17;0.95;;;17.30;45.90;;;;;;4965065;28;45400;-64
2023/01/19 08:58:41;;;;;;;1.55;1.00;;;17.30;46.00;;;;;;4967600;28;45925;-62
2023/01/19 09:01:08;;;;;;;1.10;0.90;;;17.40;45.90;;;;;;4951549;28;45512;-59
2023/01/19 09:03:36;;;;;;;1.33;1.13;;;17.50;45.90;;;;;;4940903;28;45165;-59
2023/01/19 09:06:06;;;;;;;1.10;1.00;;;17.60;45.80;;;;;;4969590;28;45592;-64
2023/01/19 09:08:31;;;;;;;1.17;0.80;;;17.70;45.50;;;;;;4964626;28;46031;-63
2023/01/19 09:10:57;;;;;;;0.80;0.80;;;17.80;45.50;;;;;;4957419;28;45087;-63
2023/01/19 09:13:23;;;;;;;1.30;0.93;;;18.00;45.40;;;;;;4966244;28;45234;-62
2023/01/19 09:15:48;;;;;;;1.05;0.75;;;18.00;45.20;;;;;;4960309;28;45435;-63
2023/01/19 09:18:16;;;;;;;1.40;1.08;;;18.10;45.10;;;;;;4966691;28;45813;-61
2023/01/19 09:20:43;;;;;;;1.33;0.90;;;18.20;45.10;;;;;;4942129;28;45441;-63
2023/01/19 09:23:09;;;;;;;2.15;0.90;;;18.30;45.00;;;;;;4964838;28;44666;-63
2023/01/19 09:25:36;;;;;;;1.05;0.80;;;18.40;44.90;;;;;;4956451;28;45442;-65
2023/01/19 09:28:04;;;;;;;1.50;0.90;;;18.50;44.80;;;;;;4954718;28;47112;-64
2023/01/19 09:30:31;;;;;;;1.75;1.15;;;18.50;45.20;;;;;;4962796;28;44928;-64
2023/01/19 09:33:09;;;;;;;0.93;0.80;;;18.60;44.70;;;;;;4966609;28;45376;-63
2023/01/19 09:35:35;;;;;;;1.02;0.93;;;18.60;44.60;;;;;;4950430;28;45592;-64
2023/01/19 09:38:01;;;;;;;1.25;0.65;;;18.60;44.70;;;;;;4962914;28;45531;-63
2023/01/19 09:40:26;;;;;;;1.33;0.90;;;18.60;44.80;;;;;;4963446;28;45420;-64
2023/01/19 09:42:58;;;;;;;1.88;1.15;;;18.60;44.80;;;;;;4950228;28;45514;-63
2023/01/19 09:45:44;;;;;;;1.92;1.00;;;18.70;44.60;;;;;;4946087;28;45093;-65
2023/01/19 09:48:34;;;;;;;1.65;0.90;;;18.80;44.20;;;;;;4944732;28;46912;-65
2023/01/19 09:51:01;;;;;;;1.70;1.00;;;18.90;44.10;;;;;;4953247;28;46119;-65
2023/01/19 09:53:40;;;;;;;1.40;0.85;;;19.00;44.40;;;;;;4948124;28;45531;-63
2023/01/19 09:56:13;;;;;;;1.10;0.93;;;19.10;44.00;;;;;;4948595;28;45817;-64
2023/01/19 09:58:39;;;;;;;1.10;0.70;;;19.20;44.10;;;;;;4922086;28;46002;-62
2023/01/19 10:01:40;;;;;;;1.55;1.00;;;19.30;44.00;;;;;;4965119;28;45262;-63
2023/01/19 10:04:33;;;;;;;1.38;0.88;;;19.40;43.70;;;;;;4946914;28;44863;-63
2023/01/19 10:07:29;;;;;;;1.10;0.90;;;19.50;43.50;;;;;;4967876;28;45477;-65
2023/01/19 10:10:17;;;;;;;1.00;0.70;;;19.50;43.40;;;;;;4963121;28;46150;-64
2023/01/19 10:12:45;;;;;;;1.35;0.80;;;19.60;43.50;;;;;;4945457;28;45936;-64
2023/01/19 10:15:17;;;;;;;1.23;0.90;;;19.70;43.70;;;;;;4946873;28;46024;-65
2023/01/19 10:17:50;;;;;;;1.23;0.93;;;19.70;43.60;;;;;;4936916;28;46466;-64
2023/01/19 10:20:21;;;;;;;0.75;0.75;;;19.60;43.60;;;;;;4946753;28;45195;-62
2023/01/19 10:22:48;;;;;;;1.85;1.02;;;19.60;43.80;;;;;;4936775;28;45613;-62
2023/01/19 10:25:16;;;;;;;1.25;0.80;;;19.60;43.90;;;;;;4962073;28;44837;-63
2023/01/19 10:27:42;;;;;;;1.50;1.00;;;19.70;43.90;;;;;;4940985;28;45643;-64
2023/01/19 10:30:09;;;;;;;0.93;0.80;;;19.80;43.70;;;;;;4943909;28;46166;-63
2023/01/19 10:32:34;;;;;;;1.60;0.93;;;19.90;43.70;;;;;;4931795;28;45462;-65
2023/01/19 10:35:00;;;;;;;0.95;0.70;;;19.90;43.60;;;;;;4937316;28;45581;-64
2023/01/19 10:37:35;;;;;;;1.67;0.80;;;20.00;43.40;;;;;;4945688;28;46303;-63
2023/01/19 10:40:10;;;;;;;1.48;0.90;;;20.10;43.20;;;;;;4966077;28;45438;-65
2023/01/19 10:42:37;;;;;;;1.20;0.82;;;20.20;43.10;;;;;;4966241;28;45187;-65
2023/01/19 10:45:13;;;;;;;0.93;0.60;;;20.30;43.20;;;;;;4954043;28;45299;-64
2023/01/19 10:47:38;;;;;;;0.73;0.70;;;20.30;43.10;;;;;;4953127;28;45231;-66
2023/01/19 10:50:25;;;;;;;0.60;0.60;;;20.40;43.00;;;;;;4925055;28;46602;-64
2023/01/19 10:52:55;;;;;;;1.13;0.85;;;20.50;42.60;;;;;;4950589;28;44997;-65
2023/01/19 10:55:36;;;;;;;1.00;0.85;;;20.50;42.80;;;;;;4951876;28;45530;-66
2023/01/19 10:58:02;;;;;;;1.13;0.77;;;20.60;42.70;;;;;;4947530;28;45529;-65
2023/01/19 11:00:40;;;;;;;1.88;0.90;;;20.70;42.90;;;;;;4943291;28;45610;-65
2023/01/19 11:03:28;;;;;;;0.68;0.60;;;20.70;42.60;;;;;;4959475;28;45332;-64
2023/01/19 11:06:20;;;;;;;1.02;0.80;;;20.80;42.20;;;;;;4950682;28;45079;-63
2023/01/19 11:08:46;;;;;;;0.88;0.70;;;20.80;42.60;;;;;;4952564;28;46282;-65
2023/01/19 11:11:12;;;;;;;0.60;0.55;;;20.90;42.60;;;;;;4932310;28;45064;-65
2023/01/19 11:13:38;;;;;;;1.38;0.80;;;20.80;42.60;;;;;;4939825;28;46681;-64
2023/01/19 11:16:15;;;;;;;1.80;0.70;;;20.80;42.80;;;;;;4950509;28;45276;-64
2023/01/19 11:18:40;;;;;;;0.68;0.60;;;20.80;42.50;;;;;;4943397;28;44796;-63
2023/01/19 11:21:10;;;;;;;0.93;0.70;;;20.80;42.70;;;;;;4940637;28;45345;-62
2023/01/19 11:23:41;;;;;;;1.23;0.68;;;20.80;42.50;;;;;;4934002;28;44648;-62
2023/01/19 11:26:15;;;;;;;1.42;0.68;;;20.90;42.50;;;;;;4955998;28;45319;-63
2023/01/19 11:28:47;;;;;;;0.80;0.75;;;21.00;42.50;;;;;;4961222;28;44707;-61
2023/01/19 11:31:13;;;;;;;1.07;0.73;;;21.10;42.10;;;;;;4954881;28;46118;-63
2023/01/19 11:34:04;;;;;;;2.05;0.73;;;21.10;42.20;;;;;;4967809;28;45104;-64
2023/01/19 11:36:36;;;;;;;1.05;0.60;;;21.20;41.70;;;;;;4943715;28;45204;-63
2023/01/19 11:39:11;;;;;;;1.73;0.70;;;21.20;41.90;;;;;;4952187;28;44797;-62
2023/01/19 11:41:36;;;;;;;0.60;0.60;;;21.30;41.80;;;;;;4969857;28;45354;-63
2023/01/19 11:44:12;;;;;;;1.25;0.60;;;21.30;42.00;;;;;;4942945;28;45221;-63
2023/01/19 11:46:38;;;;;;;0.65;0.52;;;21.40;41.80;;;;;;4939437;28;45588;-63
2023/01/19 11:49:06;;;;;;;0.75;0.68;;;21.40;41.90;;;;;;4955104;28;45487;-63
2023/01/19 11:52:01;;;;;;;1.48;0.80;;;21.50;41.90;;;;;;4939274;28;45922;-51
2023/01/19 11:54:30;;;;;;;0.50;0.50;;;21.50;41.20;;;;;;4951733;28;45141;-50
2023/01/19 11:56:57;;;;;;;1.00;0.80;;;21.50;41.80;;;;;;4961698;28;44734;-53
2023/01/19 11:59:24;;;;;;;1.13;0.80;;;21.60;41.90;;;;;;4950009;28;45330;-55
2023/01/19 12:01:53;;;;;;;1.20;0.70;;;21.60;41.90;;;;;;4957121;28;46085;-53
2023/01/19 12:04:28;;;;;;;1.27;0.77;;;21.60;41.80;;;;;;4937574;28;45377;-51
2023/01/19 12:06:54;;;;;;;0.65;0.55;;;21.70;41.80;;;;;;4949015;28;46040;-50
2023/01/19 12:09:30;;;;;;;1.02;0.60;;;21.70;41.80;;;;;;4932150;28;45328;-50
2023/01/19 12:12:02;;;;;;;2.08;0.90;;;21.80;41.50;;;;;;4950814;28;45291;-52
2023/01/19 12:14:35;;;;;;;0.95;0.80;;;21.80;41.70;;;;;;4965621;28;46069;-53
2023/01/19 12:17:01;;;;;;;0.80;0.57;;;21.80;41.50;;;;;;4949930;28;45561;-53
2023/01/19 12:19:51;;;;;;;0.85;0.63;;;21.70;41.60;;;;;;4931883;28;45247;-50
2023/01/19 12:22:17;;;;;;;0.60;0.60;;;21.60;41.40;;;;;;4941165;28;46095;-60
2023/01/19 12:24:48;;;;;;;0.90;0.57;;;21.60;42.00;;;;;;4920702;28;45629;-55
2023/01/19 12:27:39;;;;;;;0.60;0.60;;;21.70;41.90;;;;;;4938585;28;45189;-55
2023/01/19 12:30:14;;;;;;;1.20;0.60;;;21.70;41.50;;;;;;4951848;28;45274;-54
2023/01/19 12:32:41;;;;;;;0.95;0.65;;;21.80;41.80;;;;;;4951044;28;45155;-51
2023/01/19 12:35:27;;;;;;;0.95;0.60;;;21.80;41.80;;;;;;4954644;28;44648;-52
2023/01/19 12:37:53;;;;;;;1.05;0.80;;;21.90;41.80;;;;;;4952677;28;45238;-53
2023/01/19 12:40:25;;;;;;;0.65;0.50;;;21.90;41.70;;;;;;4966307;28;45281;-56
2023/01/19 12:43:13;;;;;;;0.80;0.70;;;22.00;41.50;;;;;;4939665;28;46988;-52
2023/01/19 12:45:39;;;;;;;0.98;0.65;;;22.10;41.60;;;;;;4923000;28;45585;-51
2023/01/19 12:48:10;;;;;;;0.55;0.55;;;22.10;41.60;;;;;;4932925;28;45697;-50
2023/01/19 12:50:36;;;;;;;0.45;0.40;;;22.10;41.60;;;;;;4955738;28;45430;-54
2023/01/19 12:53:02;;;;;;;1.20;0.50;;;22.20;41.50;;;;;;4968094;28;46274;-52
2023/01/19 12:55:30;;;;;;;0.77;0.63;;;22.20;41.50;;;;;;4949157;28;45152;-55
2023/01/19 12:58:13;;;;;;;0.88;0.57;;;22.30;41.50;;;;;;4948162;28;45015;-50
2023/01/19 13:00:43;;;;;;;0.82;0.60;;;22.30;41.00;;;;;;4968250;28;45140;-54
2023/01/19 13:03:15;;;;;;;1.38;0.60;;;22.40;41.40;;;;;;4952507;28;45243;-51
2023/01/19 13:05:40;;;;;;;0.57;0.45;;;22.40;41.20;;;;;;4965781;28;44687;-52
2023/01/19 13:08:09;;;;;;;0.77;0.60;;;22.40;41.40;;;;;;4968475;28;45368;-51
2023/01/19 13:10:53;;;;;;;0.57;0.50;;;22.50;41.40;;;;;;4964958;28;45440;-53
2023/01/19 13:13:19;;;;;;;0.40;0.38;;;22.50;40.80;;;;;;4968412;28;45176;-50
2023/01/19 13:15:45;;;;;;;0.63;0.50;;;22.60;41.30;;;;;;4968494;28;45454;-50
2023/01/19 13:18:31;;;;;;;1.10;0.43;;;22.60;41.30;;;;;;4962796;28;45510;-51
2023/01/19 13:21:06;;;;;;;0.52;0.47;;;22.60;40.90;;;;;;4952837;28;45389;-50
2023/01/19 13:23:48;;;;;;;0.60;0.47;;;22.60;41.10;;;;;;4938097;28;46176;-57
2023/01/19 13:26:15;;;;;;;0.40;0.40;;;22.60;41.00;;;;;;4964641;28;45607;-54
2023/01/19 13:28:42;;;;;;;0.50;0.40;;;22.70;41.40;;;;;;4949553;28;45713;-52
2023/01/19 13:31:08;;;;;;;0.73;0.60;;;22.70;41.40;;;;;;4951148;28;45413;-52
2023/01/19 13:33:43;;;;;;;0.65;0.50;;;22.70;41.40;;;;;;4935250;28;46838;-54
2023/01/19 13:36:40;;;;;;;1.08;0.65;;;22.70;41.30;;;;;;4948857;28;45209;-51
2023/01/19 13:39:10;;;;;;;0.60;0.40;;;22.70;40.90;;;;;;4942877;28;45280;-49
2023/01/19 13:41:36;;;;;;;1.10;0.68;;;22.80;41.40;;;;;;4940913;28;44981;-56
2023/01/19 13:44:22;;;;;;;0.45;0.40;;;22.80;41.30;;;;;;4953895;28;45230;-54
2023/01/19 13:46:48;;;;;;;0.68;0.60;;;22.80;40.90;;;;;;4965301;28;45120;-52
2023/01/19 13:49:30;;;;;;;0.55;0.50;;;22.80;41.30;;;;;;4934966;28;45290;-52
2023/01/19 13:52:24;;;;;;;0.45;0.45;;;22.90;41.20;;;;;;4970421;28;45354;-50
2023/01/19 13:54:59;;;;;;;;;;;22.90;41.00;;;;;;4966228;28;45483;-55
2023/01/19 13:57:28;;;;;;;0.50;0.40;;;22.90;40.80;;;;;;4969840;28;45303;-54
2023/01/19 14:00:13;;;;;;;0.50;0.50;;;22.90;41.30;;;;;;4964818;28;44904;-52
2023/01/19 14:02:59;;;;;;;0.57;0.45;;;22.90;41.10;;;;;;4965506;28;45176;-49
2023/01/19 14:05:31;;;;;;;0.50;0.40;;;23.00;41.30;;;;;;4953904;28;45237;-54
2023/01/19 14:08:12;;;;;;;0.60;0.60;;;23.00;41.40;;;;;;4971308;28;45190;-52
2023/01/19 14:10:45;;;;;;;0.52;0.40;;;23.00;41.10;;;;;;4964508;28;44954;-52
2023/01/19 14:13:21;;;;;;;0.68;0.50;;;23.00;41.10;;;;;;4963603;28;44713;-53
2023/01/19 14:15:47;;;;;;;0.43;0.40;;;23.00;41.20;;;;;;4966025;28;46197;-48
2023/01/19 14:18:13;;;;;;;0.68;0.40;;;23.00;41.20;;;;;;4938149;28;44654;-51
2023/01/19 14:20:38;;;;;;;0.50;0.50;;;23.00;41.20;;;;;;4966837;28;44712;-51
2023/01/19 14:23:04;;;;;;;0.60;0.60;;;23.10;41.30;;;;;;4950968;28;44984;-50
2023/01/19 14:25:34;;;;;;;0.80;0.50;;;23.10;41.50;;;;;;4953970;28;45706;-48
2023/01/19 14:28:28;;;;;;;0.50;0.50;;;23.00;41.10;;;;;;4967530;28;45465;-49
2023/01/19 14:31:02;;;;;;;0.50;0.50;;;22.90;40.80;;;;;;4969531;28;45245;-54
2023/01/19 14:33:42;;;;;;;0.68;0.50;;;22.90;41.40;;;;;;4950101;28;45754;-52
2023/01/19 14:36:32;;;;;;;0.45;0.40;;;22.80;41.50;;;;;;4961336;28;46035;-56
2023/01/19 14:38:58;;;;;;;0.47;0.47;;;22.80;41.30;;;;;;4938432;28;44862;-58
2023/01/19 14:41:28;;;;;;;0.65;0.60;;;22.90;41.60;;;;;;4949372;28;46208;-48
2023/01/19 14:43:57;;;;;;;0.43;0.40;;;23.00;41.50;;;;;;4967894;28;44669;-55
2023/01/19 14:46:23;;;;;;;0.70;0.40;;;23.00;41.40;;;;;;4951040;28;47210;-52
2023/01/19 14:48:49;;;;;;;0.50;0.47;;;23.00;41.40;;;;;;4927958;28;45235;-52
2023/01/19 14:51:19;;;;;;;0.35;0.35;;;23.10;41.40;;;;;;4950634;28;45347;-49
2023/01/19 14:53:55;;;;;;;0.55;0.30;;;23.10;41.30;;;;;;4934545;28;45436;-52
2023/01/19 14:56:39;;;;;;;0.20;0.20;;;23.10;41.20;;;;;;4944582;28;44973;-54
2023/01/19 14:59:07;;;;;;;0.40;0.30;;;23.10;41.60;;;;;;4964596;28;45192;-56
2023/01/19 15:01:32;;;;;;;0.90;0.47;;;23.10;41.30;;;;;;4931423;28;45562;-51
2023/01/19 15:03:58;;;;;;;0.63;0.45;;;23.20;41.30;;;;;;4950329;28;45443;-51
2023/01/19 15:06:24;;;;;;;0.47;0.40;;;23.20;41.30;;;;;;4965852;28;46027;-53
2023/01/19 15:08:50;;;;;;;1.25;0.60;;;23.20;41.30;;;;;;4946621;28;45356;-56
2023/01/19 15:11:38;;;;;;;0.57;0.43;;;23.20;41.30;;;;;;4947472;28;45578;-50
2023/01/19 15:14:04;;;;;;;0.30;0.30;;;23.20;41.20;;;;;;4962682;28;45228;-51
2023/01/19 15:16:31;;;;;;;0.38;0.32;;;23.30;41.30;;;;;;4949871;28;45998;-50
2023/01/19 15:18:56;;;;;;;1.08;0.50;;;23.30;41.20;;;;;;4946818;28;45772;-49
2023/01/19 15:21:25;;;;;;;0.75;0.30;;;23.30;41.20;;;;;;4963306;28;45564;-52
2023/01/19 15:23:51;;;;;;;0.57;0.55;;;23.30;41.30;;;;;;4960423;28;45183;-54
2023/01/19 15:26:17;;;;;;;0.30;0.30;;;23.40;41.20;;;;;;4948453;28;46103;-52
2023/01/19 15:28:43;;;;;;;0.80;0.47;;;23.40;41.30;;;;;;4938847;28;46354;-52
2023/01/19 15:31:16;;;;;;;0.68;0.40;;;23.40;41.50;;;;;;4965934;28;44978;-52
2023/01/19 15:33:42;;;;;;;0.40;0.40;;;23.40;41.10;;;;;;4936200;28;45248;-49
2023/01/19 15:36:18;;;;;;;0.35;0.35;;;23.40;41.30;;;;;;4959631;28;46237;-53
2023/01/19 15:38:43;;;;;;;0.60;0.50;;;23.50;41.00;;;;;;4965450;28;45614;-51
2023/01/19 15:41:20;;;;;;;0.50;0.50;;;23.50;41.20;;;;;;4968730;28;45275;-52
2023/01/19 15:43:46;;;;;;;0.30;0.30;;;23.50;41.10;;;;;;4972075;28;45255;-51
2023/01/19 15:46:14;;;;;;;0.60;0.40;;;23.50;41.10;;;;;;4959188;28;45838;-51
2023/01/19 15:48:40;;;;;;;1.48;0.60;;;23.50;41.10;;;;;;4949114;28;45288;-49
2023/01/19 15:51:09;;;;;;;0.82;0.50;;;23.40;40.90;;;;;;4970039;28;44776;-50
2023/01/19 15:53:34;;;;;;;1.02;0.60;;;23.30;41.00;;;;;;4937368;28;45300;-55
2023/01/19 15:56:00;;;;;;;0.63;0.60;;;23.20;41.10;;;;;;4975066;28;45469;-53
2023/01/19 15:58:25;;;;;;;0.63;0.50;;;23.00;41.30;;;;;;4969135;28;45147;-54
2023/01/19 16:00:55;;;;;;;0.70;0.50;;;22.90;41.50;;;;;;4964386;28;45381;-52
2023/01/19 16:03:20;;;;;;;0.30;0.30;;;22.80;41.60;;;;;;4967804;28;45247;-49
2023/01/19 16:05:46;;;;;;;0.60;0.52;;;22.60;41.90;;;;;;4964236;28;46339;-50
2023/01/19 16:08:12;;;;;;;0.68;0.30;;;22.50;42.00;;;;;;4966218;28;45236;-53
2023/01/19 16:10:38;;;;;;;0.50;0.50;;;22.40;42.20;;;;;;4969827;28;45220;-52
2023/01/19 16:13:04;;;;;;;0.50;0.50;;;22.30;42.30;;;;;;4971570;28;44862;-52
2023/01/19 16:15:29;;;;;;;0.73;0.50;;;22.20;42.60;;;;;;4967869;28;45614;-52
2023/01/19 16:18:10;;;;;;;0.32;0.32;;;22.10;42.50;;;;;;4932916;28;45312;-57
2023/01/19 16:20:35;;;;;;;0.55;0.55;;;22.00;42.70;;;;;;4970261;28;45284;-55
2023/01/19 16:23:01;;;;;;;0.40;0.40;;;21.90;42.70;;;;;;4970700;28;45237;-51
2023/01/19 16:25:27;;;;;;;0.50;0.50;;;21.80;42.90;;;;;;4949266;28;47233;-52
2023/01/19 16:27:53;;;;;;;0.52;0.43;;;21.70;43.00;;;;;;4970930;28;45416;-52
2023/01/19 16:30:19;;;;;;;0.40;0.40;;;21.60;43.10;;;;;;4968982;28;44737;-52
2023/01/19 16:32:45;;;;;;;0.50;0.40;;;21.50;43.20;;;;;;4952457;28;45370;-51
2023/01/19 16:35:11;;;;;;;0.73;0.50;;;21.50;43.40;;;;;;4952073;28;46101;-53
2023/01/19 16:37:37;;;;;;;0.50;0.50;;;21.40;43.40;;;;;;4970360;28;44871;-52
2023/01/19 16:40:03;;;;;;;0.60;0.50;;;21.30;43.60;;;;;;4953093;28;45514;-53
2023/01/19 16:42:28;;;;;;;0.40;0.40;;;21.10;43.60;;;;;;4964164;28;45252;-49
2023/01/19 16:44:54;;;;;;;0.73;0.52;;;21.10;43.70;;;;;;4958538;28;47180;-53
2023/01/19 16:47:19;;;;;;;0.55;0.50;;;21.00;43.80;;;;;;4969703;28;45536;-51
2023/01/19 16:49:45;;;;;;;0.68;0.50;;;20.90;43.90;;;;;;4972340;28;45168;-49
2023/01/19 16:52:11;;;;;;;0.40;0.30;;;20.90;44.10;;;;;;4972014;28;45247;-49
2023/01/19 16:54:36;;;;;;;1.77;0.60;;;20.80;44.10;;;;;;4969252;28;47096;-52
2023/01/19 16:57:02;;;;;;;0.80;0.60;;;20.70;44.20;;;;;;4966556;28;45282;-52
2023/01/19 16:59:28;;;;;;;1.10;0.60;;;20.60;44.20;;;;;;4938262;28;45707;-49